createdAt,value
2018-04-11T00:00:18.922Z,3.70
2018-04-11T00:01:25.713Z,3.90
2018-04-11T00:02:32.479Z,3.80
2018-04-11T00:03:39.252Z,4.30
2018-04-11T00:04:45.992Z,4.50
2018-04-11T00:05:52.783Z,4.20
2018-04-11T00:06:59.583Z,4.20
2018-04-11T00:08:06.348Z,4.40
2018-04-11T00:09:13.200Z,4.20
2018-04-11T00:10:19.971Z,4.20
2018-04-11T00:11:26.711Z,4.20
2018-04-11T00:12:33.436Z,4.00
2018-04-11T00:13:40.144Z,4.20
2018-04-11T00:14:46.918Z,4.00
2018-04-11T00:15:53.648Z,3.90
2018-04-11T00:17:00.356Z,4.00
2018-04-11T00:18:07.187Z,4.20
2018-04-11T00:19:13.984Z,4.40
2018-04-11T00:20:20.698Z,4.20
2018-04-11T00:21:27.437Z,4.30
2018-04-11T00:22:34.175Z,4.20
2018-04-11T00:23:40.901Z,4.30
2018-04-11T00:24:47.656Z,4.00
2018-04-11T00:25:54.375Z,4.30
2018-04-11T00:27:01.134Z,4.40
2018-04-11T00:28:07.869Z,4.70
2018-04-11T00:29:14.689Z,4.30
2018-04-11T00:30:21.388Z,4.60
2018-04-11T00:31:28.082Z,4.70
2018-04-11T00:32:34.808Z,4.30
2018-04-11T00:33:41.541Z,4.40
2018-04-11T00:34:48.635Z,4.40
2018-04-11T00:35:55.515Z,4.70
2018-04-11T00:37:02.214Z,4.40
2018-04-11T00:38:08.983Z,4.70
2018-04-11T00:39:15.712Z,4.70
2018-04-11T00:40:22.507Z,4.60
2018-04-11T00:41:29.202Z,4.50
2018-04-11T00:42:35.910Z,5.10
2018-04-11T00:43:42.648Z,4.60
2018-04-11T00:44:49.632Z,4.90
2018-04-11T00:45:56.357Z,5.20
2018-04-11T00:47:03.048Z,4.70
2018-04-11T00:48:09.895Z,5.20
2018-04-11T00:49:16.620Z,5.40
2018-04-11T00:50:23.427Z,5.30
2018-04-11T00:51:30.217Z,5.80
2018-04-11T00:52:37.044Z,5.90
2018-04-11T00:53:44.199Z,6.10
2018-04-11T00:54:50.951Z,6.30
2018-04-11T00:55:57.737Z,6.60
2018-04-11T00:57:04.603Z,5.60
2018-04-11T00:58:11.379Z,6.10
2018-04-11T00:59:18.138Z,6.10
2018-04-11T01:00:24.972Z,6.10
2018-04-11T01:01:31.744Z,6.50
2018-04-11T01:02:38.545Z,5.50
2018-04-11T01:03:45.416Z,6.40
2018-04-11T01:04:52.259Z,5.50
2018-04-11T01:05:59.020Z,6.20
2018-04-11T01:07:05.814Z,5.80
2018-04-11T01:08:12.847Z,5.90
2018-04-11T01:09:19.667Z,6.00
2018-04-11T01:10:26.458Z,5.70
2018-04-11T01:11:33.220Z,5.50
2018-04-11T01:12:40.002Z,6.40
2018-04-11T01:13:46.756Z,5.90
2018-04-11T01:14:53.506Z,5.60
2018-04-11T01:16:00.275Z,5.70
2018-04-11T01:17:07.059Z,5.40
2018-04-11T01:18:13.841Z,5.60
2018-04-11T01:19:20.618Z,5.90
2018-04-11T01:20:27.454Z,5.60
2018-04-11T01:21:34.196Z,5.40
2018-04-11T01:22:40.971Z,5.50
2018-04-11T01:23:47.730Z,5.60
2018-04-11T01:24:54.544Z,5.30
2018-04-11T01:26:01.345Z,5.50
2018-04-11T01:27:08.099Z,5.60
2018-04-11T01:28:14.875Z,4.90
2018-04-11T01:29:21.751Z,5.10
2018-04-11T01:30:28.496Z,5.60
2018-04-11T01:31:35.274Z,5.70
2018-04-11T01:32:42.043Z,5.50
2018-04-11T01:33:48.827Z,5.00
2018-04-11T01:34:55.659Z,5.40
2018-04-11T01:36:02.426Z,5.50
2018-04-11T01:37:09.183Z,5.20
2018-04-11T01:38:15.938Z,4.90
2018-04-11T01:39:22.805Z,4.80
2018-04-11T01:40:29.567Z,5.40
2018-04-11T01:41:36.339Z,4.40
2018-04-11T01:42:43.096Z,5.20
2018-04-11T01:43:49.863Z,5.10
2018-04-11T01:44:56.647Z,5.10
2018-04-11T01:46:03.430Z,5.10
2018-04-11T01:47:10.283Z,5.30
2018-04-11T01:48:17.044Z,5.20
2018-04-11T01:49:23.868Z,5.60
2018-04-11T01:50:30.719Z,5.80
2018-04-11T01:51:37.474Z,4.90
2018-04-11T01:52:44.198Z,4.50
2018-04-11T01:53:50.947Z,4.40
2018-04-11T01:54:57.647Z,5.20
2018-04-11T01:56:04.423Z,5.30
2018-04-11T01:57:11.120Z,4.80
2018-04-11T01:58:17.824Z,5.30
2018-04-11T01:59:24.586Z,5.10
2018-04-11T02:00:31.395Z,5.00
2018-04-11T02:01:38.119Z,5.00
2018-04-11T02:02:44.807Z,4.90
2018-04-11T02:03:51.534Z,5.60
2018-04-11T02:04:58.283Z,4.90
2018-04-11T02:06:04.979Z,5.10
2018-04-11T02:07:11.751Z,5.40
2018-04-11T02:08:18.487Z,5.00
2018-04-11T02:09:25.207Z,5.40
2018-04-11T02:10:31.971Z,5.30
2018-04-11T02:11:38.707Z,4.60
2018-04-11T02:12:45.539Z,5.10
2018-04-11T02:13:52.284Z,5.40
2018-04-11T02:14:58.995Z,5.60
2018-04-11T02:16:05.788Z,5.40
2018-04-11T02:17:12.659Z,4.80
2018-04-11T02:18:19.383Z,5.30
2018-04-11T02:19:26.181Z,5.50
2018-04-11T02:20:32.996Z,5.40
2018-04-11T02:21:39.715Z,5.10
2018-04-11T02:22:46.436Z,4.70
2018-04-11T02:23:53.163Z,5.10
2018-04-11T02:24:59.895Z,5.50
2018-04-11T02:26:06.589Z,5.30
2018-04-11T02:27:13.372Z,5.80
2018-04-11T02:28:20.102Z,5.80
2018-04-11T02:29:26.839Z,6.00
2018-04-11T02:30:33.611Z,6.00
2018-04-11T02:31:40.438Z,5.20
2018-04-11T02:32:47.243Z,4.70
2018-04-11T02:33:54.059Z,4.70
2018-04-11T02:35:00.755Z,5.20
2018-04-11T02:36:07.529Z,4.30
2018-04-11T02:37:14.223Z,5.00
2018-04-11T02:38:20.936Z,4.10
2018-04-11T02:39:27.706Z,4.50
2018-04-11T02:40:34.428Z,4.30
2018-04-11T02:41:41.242Z,4.50
2018-04-11T02:42:47.998Z,4.40
2018-04-11T02:43:54.831Z,4.40
2018-04-11T02:45:01.555Z,4.70
2018-04-11T02:46:08.660Z,5.00
2018-04-11T02:47:15.454Z,4.40
2018-04-11T02:48:22.174Z,4.60
2018-04-11T02:49:28.943Z,4.90
2018-04-11T02:50:35.644Z,5.20
2018-04-11T02:51:42.414Z,4.20
2018-04-11T02:52:49.189Z,4.90
2018-04-11T02:53:56.028Z,3.90
2018-04-11T02:55:02.753Z,4.90
2018-04-11T02:56:09.462Z,4.60
2018-04-11T02:57:16.234Z,4.80
2018-04-11T02:58:22.946Z,4.30
2018-04-11T02:59:29.686Z,4.60
2018-04-11T03:00:36.434Z,4.00
2018-04-11T03:01:43.178Z,5.40
2018-04-11T03:02:50.189Z,4.70
2018-04-11T03:03:56.936Z,4.60
2018-04-11T03:05:03.935Z,4.50
2018-04-11T03:06:10.887Z,4.30
2018-04-11T03:07:17.598Z,4.50
2018-04-11T03:08:24.328Z,4.30
2018-04-11T03:09:31.097Z,4.70
2018-04-11T03:10:37.838Z,4.40
2018-04-11T03:11:44.583Z,4.80
2018-04-11T03:12:51.295Z,4.80
2018-04-11T03:13:58.042Z,4.60
2018-04-11T03:15:04.748Z,4.00
2018-04-11T03:16:11.547Z,4.70
2018-04-11T03:17:18.278Z,4.20
2018-04-11T03:18:24.968Z,4.00
2018-04-11T03:19:31.733Z,4.20
2018-04-11T03:20:38.439Z,4.40
2018-04-11T03:21:45.158Z,4.40
2018-04-11T03:22:51.842Z,4.80
2018-04-11T03:23:58.635Z,4.60
2018-04-11T03:25:05.401Z,5.00
2018-04-11T03:26:12.119Z,4.10
2018-04-11T03:27:18.960Z,4.30
2018-04-11T03:28:25.662Z,4.30
2018-04-11T03:29:32.707Z,4.90
2018-04-11T03:30:39.451Z,4.10
2018-04-11T03:31:46.225Z,4.50
2018-04-11T03:32:53.287Z,4.70
2018-04-11T03:34:00.059Z,4.20
2018-04-11T03:35:06.842Z,4.20
2018-04-11T03:36:13.899Z,4.60
2018-04-11T03:37:20.603Z,4.60
2018-04-11T03:38:27.360Z,4.50
2018-04-11T03:39:34.182Z,4.00
2018-04-11T03:40:40.888Z,4.60
2018-04-11T03:41:47.620Z,4.10
2018-04-11T03:42:54.655Z,3.40
2018-04-11T03:44:01.411Z,3.60
2018-04-11T03:45:08.143Z,4.60
2018-04-11T03:46:15.208Z,4.50
2018-04-11T03:47:22.018Z,5.10
2018-04-11T03:48:28.739Z,4.50
2018-04-11T03:49:35.522Z,4.20
2018-04-11T03:50:42.240Z,4.50
2018-04-11T03:51:49.225Z,4.10
2018-04-11T03:52:56.287Z,4.30
2018-04-11T03:54:03.082Z,4.30
2018-04-11T03:55:09.807Z,4.30
2018-04-11T03:56:16.611Z,4.70
2018-04-11T03:57:23.392Z,4.20
2018-04-11T03:58:30.118Z,4.80
2018-04-11T03:59:36.920Z,3.70
2018-04-11T04:00:43.675Z,3.90
2018-04-11T04:01:50.471Z,4.00
2018-04-11T04:02:57.244Z,3.90
2018-04-11T04:04:04.013Z,4.10
2018-04-11T04:05:10.887Z,4.20
2018-04-11T04:06:17.647Z,4.20
2018-04-11T04:07:24.404Z,4.10
2018-04-11T04:08:31.176Z,3.90
2018-04-11T04:09:37.971Z,4.10
2018-04-11T04:10:44.738Z,4.20
2018-04-11T04:11:51.516Z,4.10
2018-04-11T04:12:58.373Z,3.90
2018-04-11T04:14:05.157Z,4.10
2018-04-11T04:15:11.983Z,3.70
2018-04-11T04:16:18.851Z,3.80
2018-04-11T04:17:25.943Z,4.50
2018-04-11T04:18:33.699Z,3.90
2018-04-11T04:19:40.921Z,4.10
2018-04-11T04:20:47.371Z,3.90
2018-04-11T04:21:54.136Z,4.80
2018-04-11T04:23:00.920Z,5.00
2018-04-11T04:24:07.835Z,3.90
2018-04-11T04:25:14.619Z,4.50
2018-04-11T04:26:21.403Z,4.20
2018-04-11T04:27:28.233Z,4.20
2018-04-11T04:28:34.995Z,4.00
2018-04-11T04:29:41.803Z,4.20
2018-04-11T04:30:48.667Z,4.30
2018-04-11T04:31:55.423Z,4.30
2018-04-11T04:33:02.591Z,4.70
2018-04-11T04:34:08.886Z,4.30
2018-04-11T04:35:15.751Z,4.00
2018-04-11T04:36:22.594Z,4.80
2018-04-11T04:37:29.343Z,4.60
2018-04-11T04:38:36.143Z,4.40
2018-04-11T04:39:42.954Z,4.70
2018-04-11T04:40:49.724Z,4.90
2018-04-11T04:41:56.570Z,5.30
2018-04-11T04:43:03.367Z,4.90
2018-04-11T04:44:10.127Z,5.60
2018-04-11T04:45:17.026Z,5.20
2018-04-11T04:46:23.783Z,4.90
2018-04-11T04:47:30.550Z,5.60
2018-04-11T04:48:37.326Z,5.30
2018-04-11T04:49:44.386Z,4.70
2018-04-11T04:50:51.235Z,5.20
2018-04-11T04:51:58.107Z,5.00
2018-04-11T04:53:05.283Z,4.10
2018-04-11T04:54:12.179Z,4.50
2018-04-11T04:55:18.972Z,4.30
2018-04-11T04:56:25.735Z,4.70
2018-04-11T04:57:32.601Z,4.40
2018-04-11T04:58:39.374Z,4.50
2018-04-11T04:59:46.163Z,5.10
2018-04-11T05:00:52.907Z,4.40
2018-04-11T05:01:59.687Z,5.00
2018-04-11T05:03:06.454Z,4.80
2018-04-11T05:04:13.412Z,4.80
2018-04-11T05:05:20.174Z,5.00
2018-04-11T05:06:26.983Z,4.50
2018-04-11T05:07:33.783Z,4.30
2018-04-11T05:08:40.541Z,4.20
2018-04-11T05:09:47.330Z,4.20
2018-04-11T05:10:54.109Z,4.60
2018-04-11T05:12:00.966Z,4.70
2018-04-11T05:13:07.714Z,4.40
2018-04-11T05:14:14.502Z,5.00
2018-04-11T05:15:21.287Z,4.80
2018-04-11T05:16:28.103Z,4.90
2018-04-11T05:17:34.930Z,5.10
2018-04-11T05:18:41.703Z,4.40
2018-04-11T05:19:48.494Z,5.00
2018-04-11T05:20:55.271Z,5.60
2018-04-11T05:22:02.035Z,5.20
2018-04-11T05:23:08.902Z,4.50
2018-04-11T05:24:15.775Z,4.80
2018-04-11T05:25:22.702Z,4.70
2018-04-11T05:26:29.767Z,4.70
2018-04-11T05:27:36.603Z,5.00
2018-04-11T05:28:43.392Z,6.00
2018-04-11T05:29:50.274Z,4.60
2018-04-11T05:30:57.031Z,4.90
2018-04-11T05:32:03.812Z,5.00
2018-04-11T05:33:10.675Z,4.90
2018-04-11T05:34:17.447Z,4.60
2018-04-11T05:35:24.254Z,5.00
2018-04-11T05:36:31.107Z,5.40
2018-04-11T05:37:37.955Z,5.10
2018-04-11T05:38:44.687Z,4.80
2018-04-11T05:39:51.550Z,6.20
2018-04-11T05:40:58.315Z,5.30
2018-04-11T05:42:05.144Z,5.20
2018-04-11T05:43:11.969Z,5.70
2018-04-11T05:44:18.796Z,6.20
2018-04-11T05:45:25.737Z,5.80
2018-04-11T05:46:32.520Z,6.60
2018-04-11T05:47:39.297Z,7.80
2018-04-11T05:48:46.199Z,5.40
2018-04-11T05:49:52.975Z,5.40
2018-04-11T05:50:59.762Z,5.00
2018-04-11T05:52:06.489Z,5.60
2018-04-11T05:53:13.270Z,5.70
2018-04-11T05:54:19.984Z,5.40
2018-04-11T05:55:26.830Z,5.60
2018-04-11T05:56:33.543Z,4.90
2018-04-11T05:57:40.367Z,5.30
2018-04-11T05:58:47.097Z,5.00
2018-04-11T05:59:53.847Z,6.50
2018-04-11T06:01:00.600Z,5.70
2018-04-11T06:02:07.448Z,5.10
2018-04-11T06:03:14.186Z,4.90
2018-04-11T06:04:20.943Z,5.10
2018-04-11T06:05:27.682Z,4.70
2018-04-11T06:06:34.522Z,5.50
2018-04-11T06:07:41.226Z,5.80
2018-04-11T06:08:47.936Z,5.70
2018-04-11T06:09:54.666Z,5.70
2018-04-11T06:11:01.375Z,5.50
2018-04-11T06:12:08.111Z,5.20
2018-04-11T06:13:14.900Z,6.00
2018-04-11T06:14:21.603Z,4.80
2018-04-11T06:15:28.351Z,6.20
2018-04-11T06:16:35.106Z,5.70
2018-04-11T06:17:41.982Z,5.50
2018-04-11T06:18:48.708Z,5.50
2018-04-11T06:19:55.446Z,5.40
2018-04-11T06:21:02.180Z,5.10
2018-04-11T06:22:08.895Z,5.10
2018-04-11T06:23:15.611Z,5.10
2018-04-11T06:24:22.450Z,4.40
2018-04-11T06:25:29.215Z,6.30
2018-04-11T06:26:36.521Z,5.90
2018-04-11T06:27:43.327Z,6.60
2018-04-11T06:28:50.088Z,5.80
2018-04-11T06:29:57.127Z,6.10
2018-04-11T06:31:03.862Z,5.00
2018-04-11T06:32:10.963Z,4.90
2018-04-11T06:33:17.779Z,4.40
2018-04-11T06:34:24.475Z,4.00
2018-04-11T06:35:31.205Z,4.80
2018-04-11T06:36:37.947Z,5.30
2018-04-11T06:37:44.655Z,5.60
2018-04-11T06:38:51.385Z,5.50
2018-04-11T06:39:58.439Z,6.30
2018-04-11T06:41:05.135Z,7.30
2018-04-11T06:42:11.861Z,6.50
2018-04-11T06:43:18.579Z,7.40
2018-04-11T06:44:25.270Z,6.90
2018-04-11T06:45:32.093Z,5.90
2018-04-11T06:46:39.054Z,6.00
2018-04-11T06:47:45.814Z,6.10
2018-04-11T06:48:52.520Z,6.10
2018-04-11T06:49:59.264Z,5.60
2018-04-11T06:51:06.011Z,5.60
2018-04-11T06:52:12.868Z,5.50
2018-04-11T06:53:19.652Z,5.80
2018-04-11T06:54:26.420Z,6.30
2018-04-11T06:55:33.301Z,7.30
2018-04-11T06:56:40.035Z,7.30
2018-04-11T06:57:46.824Z,7.10
2018-04-11T06:58:53.636Z,6.90
2018-04-11T07:00:00.684Z,7.20
2018-04-11T07:01:07.554Z,6.70
2018-04-11T07:02:14.347Z,6.70
2018-04-11T07:03:21.193Z,7.30
2018-04-11T07:04:27.963Z,6.90
2018-04-11T07:05:34.776Z,6.50
2018-04-11T07:06:41.617Z,6.90
2018-04-11T07:07:48.380Z,7.40
2018-04-11T07:08:55.147Z,6.50
2018-04-11T07:10:01.883Z,7.60
2018-04-11T07:11:08.703Z,8.10
2018-04-11T07:12:15.479Z,7.80
2018-04-11T07:13:22.249Z,7.00
2018-04-11T07:14:29.220Z,6.20
2018-04-11T07:15:36.027Z,6.10
2018-04-11T07:16:42.924Z,7.60
2018-04-11T07:17:49.702Z,9.10
2018-04-11T07:18:56.475Z,9.10
2018-04-11T07:20:03.335Z,7.90
2018-04-11T07:21:10.129Z,9.70
2018-04-11T07:22:16.910Z,10.10
2018-04-11T07:23:23.778Z,11.50
2018-04-11T07:24:30.632Z,9.50
2018-04-11T07:25:37.448Z,9.60
2018-04-11T07:26:44.219Z,9.60
2018-04-11T07:27:50.975Z,11.40
2018-04-11T07:28:57.750Z,12.70
2018-04-11T07:30:04.501Z,12.60
2018-04-11T07:31:11.315Z,10.70
2018-04-11T07:32:18.127Z,7.00
2018-04-11T07:33:24.881Z,6.80
2018-04-11T07:34:31.716Z,6.10
2018-04-11T07:35:38.492Z,6.60
2018-04-11T07:36:45.245Z,6.50
2018-04-11T07:37:52.001Z,6.60
2018-04-11T07:38:58.787Z,6.50
2018-04-11T07:40:05.720Z,6.80
2018-04-11T07:41:12.440Z,7.20
2018-04-11T07:42:19.299Z,7.20
2018-04-11T07:43:26.130Z,7.40
2018-04-11T07:44:32.957Z,7.30
2018-04-11T07:45:39.709Z,7.20
2018-04-11T07:46:46.477Z,7.00
2018-04-11T07:47:53.247Z,7.20
2018-04-11T07:49:00.087Z,6.70
2018-04-11T07:50:06.852Z,7.00
2018-04-11T07:51:13.719Z,7.70
2018-04-11T07:52:20.546Z,7.40
2018-04-11T07:53:27.354Z,8.10
2018-04-11T07:54:34.168Z,8.10
2018-04-11T07:55:40.954Z,7.70
2018-04-11T07:56:47.691Z,8.30
2018-04-11T07:57:54.484Z,8.60
2018-04-11T07:59:01.235Z,8.00
2018-04-11T08:00:08.155Z,8.00
2018-04-11T08:01:15.071Z,8.20
2018-04-11T08:02:22.372Z,7.70
2018-04-11T08:03:28.869Z,8.30
2018-04-11T08:04:35.620Z,7.90
2018-04-11T08:05:42.452Z,8.20
2018-04-11T08:06:49.254Z,7.90
2018-04-11T08:07:56.059Z,9.10
2018-04-11T08:09:02.845Z,8.70
2018-04-11T08:10:10.076Z,8.40
2018-04-11T08:11:16.814Z,8.70
2018-04-11T08:12:23.611Z,8.90
2018-04-11T08:13:30.387Z,9.00
2018-04-11T08:14:37.159Z,9.50
2018-04-11T08:15:44.051Z,8.70
2018-04-11T08:16:50.788Z,8.90
2018-04-11T08:17:57.568Z,9.80
2018-04-11T08:19:04.359Z,10.00
2018-04-11T08:20:11.450Z,9.10
2018-04-11T08:21:18.310Z,9.70
2018-04-11T08:22:25.087Z,8.00
2018-04-11T08:23:31.899Z,9.30
2018-04-11T08:24:38.695Z,9.30
2018-04-11T08:25:45.466Z,10.20
2018-04-11T08:26:52.264Z,11.30
2018-04-11T08:27:59.134Z,11.40
2018-04-11T08:29:05.929Z,9.00
2018-04-11T08:30:12.722Z,10.60
2018-04-11T08:31:19.610Z,9.70
2018-04-11T08:32:26.343Z,8.90
2018-04-11T08:33:33.184Z,8.90
2018-04-11T08:34:39.994Z,9.80
2018-04-11T08:35:46.730Z,9.00
2018-04-11T08:36:53.510Z,8.50
2018-04-11T08:38:00.383Z,7.90
2018-04-11T08:39:07.174Z,8.20
2018-04-11T08:40:13.978Z,8.40
2018-04-11T08:41:20.859Z,8.50
2018-04-11T08:42:27.680Z,9.20
2018-04-11T08:43:34.552Z,8.70
2018-04-11T08:44:41.395Z,9.00
2018-04-11T08:45:48.178Z,9.30
2018-04-11T08:46:55.006Z,9.50
2018-04-11T08:48:01.783Z,9.10
2018-04-11T08:49:08.590Z,8.70
2018-04-11T08:50:15.647Z,7.70
2018-04-11T08:51:22.389Z,7.40
2018-04-11T08:52:29.241Z,7.80
2018-04-11T08:53:35.947Z,8.60
2018-04-11T08:54:42.710Z,8.30
2018-04-11T08:55:49.410Z,6.80
2018-04-11T08:56:56.123Z,6.30
2018-04-11T08:58:02.947Z,6.90
2018-04-11T08:59:09.635Z,6.50
2018-04-11T09:00:16.363Z,6.40
2018-04-11T09:01:23.069Z,6.90
2018-04-11T09:02:29.824Z,7.70
2018-04-11T09:03:36.773Z,8.30
2018-04-11T09:04:43.495Z,7.70
2018-04-11T09:05:50.237Z,7.80
2018-04-11T09:06:56.947Z,7.20
2018-04-11T09:08:03.723Z,7.40
2018-04-11T09:09:10.539Z,7.70
2018-04-11T09:10:17.419Z,7.30
2018-04-11T09:11:24.190Z,7.60
2018-04-11T09:12:30.924Z,6.70
2018-04-11T09:13:37.632Z,7.00
2018-04-11T09:14:44.363Z,6.70
2018-04-11T09:15:51.079Z,6.30
2018-04-11T09:16:57.895Z,6.10
2018-04-11T09:18:04.624Z,6.00
2018-04-11T09:19:11.337Z,6.10
2018-04-11T09:20:18.070Z,6.50
2018-04-11T09:21:24.805Z,6.90
2018-04-11T09:22:31.610Z,6.50
2018-04-11T09:23:38.316Z,6.50
2018-04-11T09:24:45.043Z,6.10
2018-04-11T09:25:51.822Z,7.00
2018-04-11T09:26:58.526Z,6.50
2018-04-11T09:28:05.338Z,6.90
2018-04-11T09:29:12.146Z,6.20
2018-04-11T09:30:18.883Z,6.30
2018-04-11T09:31:25.694Z,6.30
2018-04-11T09:32:32.414Z,6.90
2018-04-11T09:33:39.189Z,6.40
2018-04-11T09:34:45.908Z,5.80
2018-04-11T09:35:52.674Z,6.80
2018-04-11T09:36:59.495Z,6.20
2018-04-11T09:38:06.302Z,6.20
2018-04-11T09:39:13.027Z,6.60
2018-04-11T09:40:19.756Z,6.10
2018-04-11T09:41:26.637Z,6.00
2018-04-11T09:42:33.482Z,5.70
2018-04-11T09:43:40.207Z,6.30
2018-04-11T09:44:47.043Z,6.70
2018-04-11T09:45:53.747Z,6.70
2018-04-11T09:47:00.504Z,5.70
2018-04-11T09:48:07.229Z,6.80
2018-04-11T09:49:13.926Z,5.70
2018-04-11T09:50:20.624Z,6.40
2018-04-11T09:51:27.406Z,6.30
2018-04-11T09:52:34.178Z,5.30
2018-04-11T09:53:40.924Z,5.50
2018-04-11T09:54:47.684Z,5.60
2018-04-11T09:55:54.464Z,5.60
2018-04-11T09:57:01.253Z,5.10
2018-04-11T09:58:08.032Z,5.40
2018-04-11T09:59:14.770Z,5.00
2018-04-11T10:00:21.607Z,5.00
2018-04-11T10:01:28.360Z,5.20
2018-04-11T10:02:35.175Z,5.30
2018-04-11T10:03:41.971Z,4.80
2018-04-11T10:04:49.123Z,5.10
2018-04-11T10:05:55.879Z,4.60
2018-04-11T10:07:02.683Z,4.40
2018-04-11T10:08:09.564Z,4.80
2018-04-11T10:09:16.323Z,4.80
2018-04-11T10:10:23.084Z,4.90
2018-04-11T10:11:29.846Z,5.20
2018-04-11T10:12:36.665Z,5.10
2018-04-11T10:13:43.406Z,5.70
2018-04-11T10:14:50.199Z,4.90
2018-04-11T10:15:56.955Z,5.10
2018-04-11T10:17:03.739Z,4.90
2018-04-11T10:18:10.523Z,4.80
2018-04-11T10:19:17.294Z,4.90
2018-04-11T10:20:24.038Z,5.60
2018-04-11T10:21:30.835Z,5.30
2018-04-11T10:22:37.681Z,5.70
2018-04-11T10:23:44.506Z,5.40
2018-04-11T10:24:51.323Z,5.80
2018-04-11T10:25:58.107Z,5.30
2018-04-11T10:27:04.867Z,5.00
2018-04-11T10:28:11.747Z,5.40
2018-04-11T10:29:18.487Z,5.10
2018-04-11T10:30:25.275Z,5.20
2018-04-11T10:31:32.107Z,5.20
2018-04-11T10:32:38.912Z,4.80
2018-04-11T10:33:45.775Z,5.20
2018-04-11T10:34:52.474Z,5.50
2018-04-11T10:35:59.259Z,5.10
2018-04-11T10:37:06.011Z,5.30
2018-04-11T10:38:12.788Z,5.50
2018-04-11T10:39:19.539Z,5.60
2018-04-11T10:40:26.354Z,5.30
2018-04-11T10:41:33.121Z,5.60
2018-04-11T10:42:39.906Z,5.00
2018-04-11T10:43:46.794Z,5.00
2018-04-11T10:44:53.552Z,5.60
2018-04-11T10:46:00.355Z,5.10
2018-04-11T10:47:07.216Z,5.70
2018-04-11T10:48:14.002Z,5.40
2018-04-11T10:49:20.779Z,4.70
2018-04-11T10:50:27.607Z,4.50
2018-04-11T10:51:34.327Z,4.70
2018-04-11T10:52:41.090Z,4.60
2018-04-11T10:53:47.814Z,4.30
2018-04-11T10:54:54.647Z,4.30
2018-04-11T10:56:01.349Z,5.30
2018-04-11T10:57:08.056Z,4.90
2018-04-11T10:58:14.778Z,4.80
2018-04-11T10:59:21.511Z,4.40
2018-04-11T11:00:28.231Z,4.20
2018-04-11T11:01:35.024Z,4.90
2018-04-11T11:02:41.811Z,4.30
2018-04-11T11:03:48.571Z,4.50
2018-04-11T11:04:55.274Z,4.90
2018-04-11T11:06:02.124Z,4.00
2018-04-11T11:07:08.902Z,4.10
2018-04-11T11:08:15.783Z,3.90
2018-04-11T11:09:22.580Z,4.40
2018-04-11T11:10:29.342Z,3.70
2018-04-11T11:11:36.161Z,3.60
2018-04-11T11:12:42.998Z,4.00
2018-04-11T11:13:49.820Z,3.60
2018-04-11T11:14:56.610Z,3.20
2018-04-11T11:16:03.676Z,3.50
2018-04-11T11:17:10.601Z,3.70
2018-04-11T11:18:17.384Z,3.30
2018-04-11T11:19:24.339Z,3.20
2018-04-11T11:20:31.096Z,3.60
2018-04-11T11:21:37.928Z,3.40
2018-04-11T11:22:44.808Z,3.30
2018-04-11T11:23:51.659Z,3.80
2018-04-11T11:24:58.588Z,3.30
2018-04-11T11:26:05.374Z,3.60
2018-04-11T11:27:12.239Z,3.80
2018-04-11T11:28:19.039Z,4.00
2018-04-11T11:29:25.782Z,3.90
2018-04-11T11:30:32.569Z,4.40
2018-04-11T11:31:39.643Z,3.20
2018-04-11T11:32:46.554Z,3.00
2018-04-11T11:33:53.256Z,3.90
2018-04-11T11:35:00.019Z,3.90
2018-04-11T11:36:06.815Z,3.50
2018-04-11T11:37:13.608Z,3.20
2018-04-11T11:38:20.417Z,3.10
2018-04-11T11:39:27.539Z,3.00
2018-04-11T11:40:34.358Z,3.00
2018-04-11T11:41:41.127Z,3.50
2018-04-11T11:42:47.928Z,3.00
2018-04-11T11:43:54.683Z,3.30
2018-04-11T11:45:01.524Z,3.00
2018-04-11T11:46:08.332Z,3.20
2018-04-11T11:47:15.095Z,3.00
2018-04-11T11:48:21.955Z,2.60
2018-04-11T11:49:28.711Z,3.10
2018-04-11T11:50:35.503Z,3.00
2018-04-11T11:51:42.389Z,3.10
2018-04-11T11:52:49.159Z,2.60
2018-04-11T11:53:55.942Z,3.30
2018-04-11T11:55:02.762Z,3.20
2018-04-11T11:56:09.620Z,3.30
2018-04-11T11:57:16.423Z,2.80
2018-04-11T11:58:23.188Z,3.20
2018-04-11T11:59:29.968Z,2.70
2018-04-11T12:00:36.728Z,3.00
2018-04-11T12:01:43.471Z,2.80
2018-04-11T12:02:50.231Z,3.10
2018-04-11T12:03:57.023Z,3.10
2018-04-11T12:05:03.875Z,3.70
2018-04-11T12:06:10.696Z,3.50
2018-04-11T12:07:17.526Z,3.00
2018-04-11T12:08:24.267Z,3.30
2018-04-11T12:09:31.316Z,3.00
2018-04-11T12:10:38.094Z,2.80
2018-04-11T12:11:44.870Z,3.10
2018-04-11T12:12:51.615Z,2.80
2018-04-11T12:13:58.350Z,3.20
2018-04-11T12:15:05.085Z,2.90
2018-04-11T12:16:11.806Z,3.20
2018-04-11T12:17:18.594Z,3.30
2018-04-11T12:18:25.415Z,2.80
2018-04-11T12:19:32.154Z,3.10
2018-04-11T12:20:38.854Z,3.30
2018-04-11T12:21:45.675Z,2.70
2018-04-11T12:22:52.411Z,3.20
2018-04-11T12:23:59.728Z,3.10
2018-04-11T12:25:06.271Z,3.20
2018-04-11T12:26:12.944Z,3.00
2018-04-11T12:27:19.714Z,2.60
2018-04-11T12:28:26.499Z,2.70
2018-04-11T12:29:33.285Z,2.70
2018-04-11T12:30:40.028Z,2.80
2018-04-11T12:31:46.804Z,3.20
2018-04-11T12:32:53.591Z,2.80
2018-04-11T12:34:00.336Z,2.80
2018-04-11T12:35:07.121Z,3.30
2018-04-11T12:36:14.230Z,2.70
2018-04-11T12:37:20.977Z,3.10
2018-04-11T12:38:27.750Z,2.80
2018-04-11T12:39:34.500Z,3.30
2018-04-11T12:40:41.327Z,3.00
2018-04-11T12:41:48.151Z,2.80
2018-04-11T12:42:54.900Z,3.10
2018-04-11T12:44:01.716Z,2.80
2018-04-11T12:45:08.478Z,3.00
2018-04-11T12:46:15.251Z,3.50
2018-04-11T12:47:21.992Z,3.30
2018-04-11T12:48:28.760Z,2.70
2018-04-11T12:49:35.495Z,2.90
2018-04-11T12:50:42.400Z,3.40
2018-04-11T12:51:49.182Z,3.40
2018-04-11T12:52:55.929Z,3.10
2018-04-11T12:54:02.763Z,2.80
2018-04-11T12:55:09.594Z,2.90
2018-04-11T12:56:16.342Z,2.90
2018-04-11T12:57:23.171Z,3.40
2018-04-11T12:58:30.149Z,3.00
2018-04-11T12:59:36.970Z,2.80
2018-04-11T13:00:43.759Z,2.90
2018-04-11T13:01:50.580Z,3.50
2018-04-11T13:02:57.390Z,3.20
2018-04-11T13:04:04.162Z,3.30
2018-04-11T13:05:10.922Z,3.80
2018-04-11T13:06:17.667Z,3.50
2018-04-11T13:07:24.455Z,3.30
2018-04-11T13:08:31.311Z,2.90
2018-04-11T13:09:38.255Z,3.50
2018-04-11T13:10:45.014Z,3.50
2018-04-11T13:11:51.800Z,3.40
2018-04-11T13:12:58.666Z,3.10
2018-04-11T13:14:05.514Z,3.30
2018-04-11T13:15:12.317Z,3.30
2018-04-11T13:16:19.094Z,2.80
2018-04-11T13:17:25.815Z,3.40
2018-04-11T13:18:32.683Z,3.50
2018-04-11T13:19:39.500Z,3.30
2018-04-11T13:20:46.264Z,3.30
2018-04-11T13:21:52.946Z,2.90
2018-04-11T13:22:59.708Z,3.60
2018-04-11T13:24:06.549Z,2.70
2018-04-11T13:25:13.398Z,2.90
2018-04-11T13:26:20.158Z,2.50
2018-04-11T13:27:27.008Z,2.60
2018-04-11T13:28:33.824Z,2.90
2018-04-11T13:29:40.600Z,2.40
2018-04-11T13:30:47.442Z,2.60
2018-04-11T13:31:54.200Z,2.80
2018-04-11T13:33:01.259Z,2.60
2018-04-11T13:34:08.041Z,3.00
2018-04-11T13:35:14.967Z,2.50
2018-04-11T13:36:21.948Z,2.20
2018-04-11T13:37:28.837Z,2.50
2018-04-11T13:38:35.651Z,2.60
2018-04-11T13:39:42.427Z,2.70
2018-04-11T13:40:49.296Z,2.70
2018-04-11T13:41:56.042Z,2.50
2018-04-11T13:43:02.876Z,2.60
2018-04-11T13:44:09.723Z,2.40
2018-04-11T13:45:16.558Z,2.70
2018-04-11T13:46:23.350Z,2.70
2018-04-11T13:47:30.163Z,2.60
2018-04-11T13:48:37.091Z,2.50
2018-04-11T13:49:43.971Z,2.80
2018-04-11T13:50:50.776Z,2.50
2018-04-11T13:51:57.543Z,2.80
2018-04-11T13:53:04.639Z,3.30
2018-04-11T13:54:11.522Z,2.80
2018-04-11T13:55:18.314Z,3.20
2018-04-11T13:56:25.392Z,2.90
2018-04-11T13:57:32.159Z,2.80
2018-04-11T13:58:38.924Z,2.90
2018-04-11T13:59:45.635Z,2.90
2018-04-11T14:00:52.447Z,3.10
2018-04-11T14:01:59.260Z,2.80
2018-04-11T14:03:06.059Z,2.80
2018-04-11T14:04:12.907Z,2.90
2018-04-11T14:05:19.718Z,2.90
2018-04-11T14:06:26.504Z,3.00
2018-04-11T14:07:33.388Z,2.80
2018-04-11T14:08:40.131Z,2.90
2018-04-11T14:09:46.891Z,3.20
2018-04-11T14:10:53.663Z,3.30
2018-04-11T14:12:00.494Z,2.80
2018-04-11T14:13:07.334Z,2.60
2018-04-11T14:14:14.131Z,2.90
2018-04-11T14:15:20.951Z,3.20
2018-04-11T14:16:27.703Z,2.80
2018-04-11T14:17:34.523Z,2.90
2018-04-11T14:18:41.395Z,2.70
2018-04-11T14:19:48.141Z,3.00
2018-04-11T14:20:54.988Z,2.90
2018-04-11T14:22:01.714Z,2.80
2018-04-11T14:23:08.508Z,2.80
2018-04-11T14:24:15.320Z,2.80
2018-04-11T14:25:22.313Z,2.60
2018-04-11T14:26:29.075Z,2.80
2018-04-11T14:27:35.840Z,3.00
2018-04-11T14:28:42.704Z,2.70
2018-04-11T14:29:49.491Z,2.50
2018-04-11T14:30:56.283Z,2.50
2018-04-11T14:32:03.091Z,2.60
2018-04-11T14:33:10.094Z,2.60
2018-04-11T14:34:16.905Z,3.00
2018-04-11T14:35:23.642Z,2.90
2018-04-11T14:36:30.439Z,2.90
2018-04-11T14:37:37.308Z,2.70
2018-04-11T14:38:49.177Z,2.80
2018-04-11T14:39:50.874Z,2.60
2018-04-11T14:40:57.678Z,2.90
2018-04-11T14:42:04.503Z,2.60
2018-04-11T14:43:11.268Z,2.50
2018-04-11T14:44:18.031Z,2.50
2018-04-11T14:45:24.864Z,2.40
2018-04-11T14:46:31.638Z,2.70
2018-04-11T14:47:38.393Z,2.40
2018-04-11T14:48:45.203Z,2.50